Terminal Aerodrome Forecast
Issued by NWS

Home | Current Version | Previous Version | Text Only | Print | Product List | Glossary On
Versions: 1 2 3 4 5 6 7 8 9 10 11 12
710
FTUS45 KRIW 281127
TAFLND
TAF
KLND 281127Z 2812/2912 VRB06KT P6SM SKC
     FM290900 23008KT P6SM VCSH SCT090 BKN130=

USA.gov is the U.S. government's official web portal to all federal, state and local government web resources and services.